Terminal Aerodrome Forecast
Issued by NWS

Home | Current Version | Previous Version | Text Only | Print | Product List | Glossary On
Versions: 1 2 3 4 5 6 7 8 9 10 11 12 13 14
249
FTUS44 KJAN 110520
TAFHKS
TAF
KHKS 110520Z 1106/1206 15003KT P6SM SKC
     FM111500 17012KT P6SM BKN050=

USA.gov is the U.S. government's official web portal to all federal, state and local government web resources and services.